createdAt,value
2022-08-22T00:00:58.138Z,81.49
2022-08-22T00:02:56.359Z,80.04
2022-08-22T00:04:14.416Z,81.49
2022-08-22T00:07:49.562Z,81.49
2022-08-22T00:11:25.843Z,81.51
2022-08-22T00:15:00.569Z,81.51
2022-08-22T00:18:32.682Z,81.46
2022-08-22T00:21:57.714Z,81.43
2022-08-22T00:25:03.415Z,81.50
2022-08-22T00:28:13.562Z,81.56
2022-08-22T00:31:26.530Z,81.55
2022-08-22T00:35:01.494Z,81.57
2022-08-22T00:38:18.453Z,81.64
2022-08-22T00:41:56.220Z,81.61
2022-08-22T00:45:31.911Z,81.65
2022-08-22T00:48:55.413Z,81.64
2022-08-22T00:51:58.292Z,81.70
2022-08-22T00:55:17.354Z,81.67
2022-08-22T00:58:46.419Z,81.71
2022-08-22T01:02:24.999Z,81.74
2022-08-22T01:05:30.433Z,81.85
2022-08-22T01:09:01.093Z,81.91
2022-08-22T01:12:03.881Z,81.99
2022-08-22T01:15:13.873Z,81.99
2022-08-22T01:18:46.662Z,82.05
2022-08-22T01:22:12.538Z,82.20
2022-08-22T01:25:53.683Z,82.20
2022-08-22T01:29:34.490Z,82.31
2022-08-22T01:32:43.341Z,82.32
2022-08-22T01:36:07.579Z,82.39
2022-08-22T01:39:41.428Z,82.46
2022-08-22T01:42:54.898Z,82.52
2022-08-22T01:46:24.228Z,82.55
2022-08-22T01:50:05.850Z,82.61
2022-08-22T01:53:22.895Z,82.62
2022-08-22T01:56:31.592Z,82.68
2022-08-22T01:59:42.428Z,82.74
2022-08-22T02:02:51.755Z,82.79
2022-08-22T02:06:10.158Z,82.83
2022-08-22T02:09:33.697Z,82.90
2022-08-22T02:13:24.778Z,82.92
2022-08-22T02:16:41.209Z,82.96
2022-08-22T02:19:57.929Z,83.00
2022-08-22T02:23:15.755Z,83.07
2022-08-22T02:26:28.789Z,83.14
2022-08-22T02:29:46.770Z,83.18
2022-08-22T02:33:01.001Z,83.20
2022-08-22T02:36:20.643Z,83.28
2022-08-22T02:39:32.352Z,83.28
2022-08-22T02:42:45.058Z,83.33
2022-08-22T02:46:32.509Z,83.43
2022-08-22T02:49:53.721Z,83.47
2022-08-22T02:53:09.383Z,83.52
2022-08-22T02:56:22.394Z,83.57
2022-08-22T02:59:35.300Z,83.59
2022-08-22T03:02:45.323Z,83.63
2022-08-22T03:05:59.118Z,83.67
2022-08-22T03:09:23.265Z,83.77
2022-08-22T03:12:55.768Z,83.84
2022-08-22T03:16:09.336Z,83.91
2022-08-22T03:19:43.833Z,83.96
2022-08-22T03:23:05.398Z,84.03
2022-08-22T03:26:14.336Z,84.05
2022-08-22T03:29:25.110Z,84.09
2022-08-22T03:33:13.112Z,84.13
2022-08-22T03:36:15.927Z,84.22
2022-08-22T03:39:39.403Z,84.23
2022-08-22T03:43:19.636Z,84.31
2022-08-22T03:46:40.982Z,84.34
2022-08-22T03:50:17.843Z,84.33
2022-08-22T03:53:42.375Z,84.33
2022-08-22T03:57:09.189Z,84.33
2022-08-22T04:00:50.821Z,84.34
2022-08-22T04:03:58.919Z,84.31
2022-08-22T04:07:32.283Z,84.26
2022-08-22T04:11:03.822Z,84.31
2022-08-22T04:14:24.184Z,84.33
2022-08-22T04:17:34.629Z,84.32
2022-08-22T04:21:12.031Z,84.28
2022-08-22T04:24:48.484Z,84.31
2022-08-22T04:28:10.099Z,84.32
2022-08-22T04:31:17.247Z,84.31
2022-08-22T04:34:29.630Z,84.32
2022-08-22T04:37:44.742Z,84.34
2022-08-22T04:40:59.449Z,84.35
2022-08-22T04:44:11.336Z,84.42
2022-08-22T04:47:40.209Z,84.41
2022-08-22T04:50:49.216Z,84.48
2022-08-22T04:54:23.690Z,84.51
2022-08-22T04:57:54.330Z,84.57
2022-08-22T05:01:06.000Z,84.57
2022-08-22T05:04:18.416Z,84.56
2022-08-22T05:07:27.282Z,84.60
2022-08-22T05:10:40.633Z,84.62
2022-08-22T05:13:55.129Z,84.63
2022-08-22T05:17:00.366Z,84.66
2022-08-22T05:20:09.438Z,84.71
2022-08-22T05:23:29.529Z,84.72
2022-08-22T05:26:44.589Z,84.73
2022-08-22T05:29:51.223Z,84.71
2022-08-22T05:33:16.591Z,84.74
2022-08-22T05:36:25.392Z,84.80
2022-08-22T05:39:30.150Z,84.78
2022-08-22T05:42:37.568Z,84.81
2022-08-22T05:45:46.927Z,84.89
2022-08-22T05:49:21.027Z,84.88
2022-08-22T05:52:59.182Z,85.08
2022-08-22T05:56:18.520Z,85.36
2022-08-22T05:59:32.945Z,85.21
2022-08-22T06:03:13.605Z,85.37
2022-08-22T06:06:21.472Z,85.40
2022-08-22T06:09:35.052Z,85.20
2022-08-22T06:12:51.001Z,85.23
2022-08-22T06:15:57.256Z,85.11
2022-08-22T06:19:00.700Z,84.98
2022-08-22T06:22:05.086Z,84.90
2022-08-22T06:25:14.345Z,84.77
2022-08-22T06:28:25.853Z,84.69
2022-08-22T06:31:47.575Z,84.39
2022-08-22T06:34:57.600Z,84.25
2022-08-22T06:38:01.504Z,83.87
2022-08-22T06:41:08.671Z,83.62
2022-08-22T06:44:15.885Z,83.46
2022-08-22T06:47:26.106Z,83.27
2022-08-22T06:50:36.905Z,83.03
2022-08-22T06:53:48.472Z,82.94
2022-08-22T06:56:55.586Z,82.52
2022-08-22T07:00:08.672Z,82.47
2022-08-22T07:03:37.453Z,82.30
2022-08-22T07:06:50.760Z,82.49
2022-08-22T07:09:56.576Z,82.28
2022-08-22T07:13:00.094Z,82.15
2022-08-22T07:16:17.839Z,81.99
2022-08-22T07:19:45.689Z,81.93
2022-08-22T07:23:08.430Z,81.88
2022-08-22T07:26:48.433Z,81.77
2022-08-22T07:30:10.286Z,81.71
2022-08-22T07:33:32.256Z,81.61
2022-08-22T07:36:47.779Z,81.64
2022-08-22T07:40:03.728Z,81.59
2022-08-22T07:43:43.498Z,81.53
2022-08-22T07:47:01.434Z,81.54
2022-08-22T07:54:10.141Z,81.19
2022-08-22T07:57:24.954Z,81.07
2022-08-22T08:00:29.688Z,81.25
2022-08-22T08:03:32.968Z,81.20
2022-08-22T08:06:36.664Z,81.54
2022-08-22T08:09:47.120Z,81.34
2022-08-22T08:13:02.327Z,81.14
2022-08-22T08:16:10.833Z,81.25
2022-08-22T08:19:17.099Z,81.53
2022-08-22T08:22:26.022Z,81.64
2022-08-22T08:25:32.253Z,81.51
2022-08-22T08:28:41.530Z,81.52
2022-08-22T08:31:45.424Z,81.49
2022-08-22T08:34:48.911Z,81.23
2022-08-22T08:38:10.653Z,81.20
2022-08-22T08:41:41.717Z,81.34
2022-08-22T08:45:09.911Z,81.25
2022-08-22T08:48:31.611Z,81.24
2022-08-22T08:51:50.301Z,81.36
2022-08-22T08:55:21.688Z,81.41
2022-08-22T08:58:25.491Z,81.29
2022-08-22T09:01:44.311Z,81.26
2022-08-22T09:05:12.689Z,81.35
2022-08-22T09:08:35.491Z,81.31
2022-08-22T09:12:03.319Z,81.25
2022-08-22T09:15:38.917Z,81.32
2022-08-22T09:19:04.982Z,81.44
2022-08-22T09:22:50.074Z,81.50
2022-08-22T09:26:03.043Z,81.58
2022-08-22T09:29:07.942Z,81.49
2022-08-22T09:32:21.093Z,81.45
2022-08-22T09:35:26.907Z,81.50
2022-08-22T09:38:30.594Z,81.51
2022-08-22T09:41:44.433Z,81.53
2022-08-22T09:45:38.249Z,81.58
2022-08-22T09:48:57.714Z,81.64
2022-08-22T09:52:15.168Z,81.69
2022-08-22T09:55:35.435Z,81.60
2022-08-22T09:58:57.859Z,81.51
2022-08-22T10:02:24.835Z,81.60
2022-08-22T10:05:51.426Z,81.54
2022-08-22T10:09:10.595Z,81.47
2022-08-22T10:12:29.691Z,81.41
2022-08-22T10:15:42.687Z,81.43
2022-08-22T10:18:54.713Z,81.48
2022-08-22T10:22:17.290Z,81.43
2022-08-22T10:25:48.225Z,81.45
2022-08-22T10:28:56.046Z,81.46
2022-08-22T10:32:43.050Z,81.60
2022-08-22T10:36:01.968Z,81.56
2022-08-22T10:39:14.591Z,81.57
2022-08-22T10:42:28.677Z,81.64
2022-08-22T10:45:43.655Z,81.77
2022-08-22T10:48:58.682Z,81.89
2022-08-22T10:52:27.316Z,81.98
2022-08-22T10:55:32.347Z,82.01
2022-08-22T10:58:42.264Z,81.83
2022-08-22T11:02:15.924Z,81.92
2022-08-22T11:05:32.917Z,82.00
2022-08-22T11:08:50.763Z,82.01
2022-08-22T11:12:11.108Z,82.07
2022-08-22T11:15:34.800Z,82.17
2022-08-22T11:19:15.023Z,82.21
2022-08-22T11:22:34.934Z,82.16
2022-08-22T11:25:58.114Z,82.20
2022-08-22T11:29:38.783Z,82.53
2022-08-22T11:33:13.772Z,82.84
2022-08-22T11:36:41.630Z,82.94
2022-08-22T11:40:01.743Z,83.05
2022-08-22T11:43:26.847Z,83.02
2022-08-22T11:46:39.599Z,83.08
2022-08-22T11:50:13.667Z,83.47
2022-08-22T11:53:26.455Z,83.96
2022-08-22T11:56:40.129Z,83.97
2022-08-22T12:00:11.559Z,84.39
2022-08-22T12:03:23.291Z,84.92
2022-08-22T12:06:48.442Z,84.76
2022-08-22T12:09:59.735Z,84.51
2022-08-22T12:13:17.094Z,84.62
2022-08-22T12:17:00.799Z,84.64
2022-08-22T12:20:18.881Z,84.66
2022-08-22T12:23:48.842Z,84.62
2022-08-22T12:26:55.305Z,84.51
2022-08-22T12:30:26.468Z,84.39
2022-08-22T12:33:55.047Z,84.28
2022-08-22T12:37:22.116Z,84.37
2022-08-22T12:40:31.579Z,84.24
2022-08-22T12:44:29.512Z,84.18
2022-08-22T12:48:12.118Z,84.18
2022-08-22T12:51:33.833Z,84.28
2022-08-22T12:55:06.022Z,84.45
2022-08-22T12:58:33.082Z,84.59
2022-08-22T13:01:44.848Z,84.49
2022-08-22T13:04:53.584Z,84.41
2022-08-22T13:08:04.525Z,84.36
2022-08-22T13:11:15.177Z,84.41
2022-08-22T13:14:28.220Z,84.34
2022-08-22T13:17:32.792Z,84.34
2022-08-22T13:20:43.467Z,84.19
2022-08-22T13:23:51.756Z,84.22
2022-08-22T13:27:05.872Z,84.21
2022-08-22T13:30:17.527Z,84.23
2022-08-22T13:33:30.852Z,84.27
2022-08-22T13:36:51.687Z,84.29
2022-08-22T13:40:01.893Z,84.32
2022-08-22T13:43:10.121Z,84.42
2022-08-22T13:46:13.387Z,84.52
2022-08-22T13:49:36.845Z,84.53
2022-08-22T13:53:00.806Z,84.52
2022-08-22T13:56:15.459Z,84.56
2022-08-22T13:59:50.265Z,84.48
2022-08-22T14:03:08.257Z,84.32
2022-08-22T14:06:36.898Z,84.11
2022-08-22T14:09:57.368Z,83.86
2022-08-22T14:13:00.346Z,83.80
2022-08-22T14:16:10.465Z,83.68
2022-08-22T14:19:38.287Z,83.67
2022-08-22T14:27:06.713Z,83.72
2022-08-22T14:30:20.380Z,83.75
2022-08-22T14:33:34.176Z,83.78
2022-08-22T14:37:16.299Z,83.87
2022-08-22T14:40:37.553Z,83.86
2022-08-22T14:44:28.269Z,83.78
2022-08-22T14:47:55.041Z,83.78
2022-08-22T14:51:21.337Z,83.78
2022-08-22T14:54:48.398Z,83.84
2022-08-22T14:58:08.435Z,83.81
2022-08-22T15:01:19.765Z,83.71
2022-08-22T15:04:47.062Z,83.74
2022-08-22T15:07:59.499Z,83.81
2022-08-22T15:11:27.339Z,83.87
2022-08-22T15:14:38.030Z,83.92
2022-08-22T15:17:50.710Z,83.96
2022-08-22T15:21:06.770Z,84.02
2022-08-22T15:24:14.310Z,84.11
2022-08-22T15:27:20.336Z,84.20
2022-08-22T15:30:54.142Z,84.22
2022-08-22T15:34:18.099Z,84.22
2022-08-22T15:37:21.541Z,84.16
2022-08-22T15:40:45.717Z,84.12
2022-08-22T15:44:00.631Z,84.08
2022-08-22T15:47:23.967Z,84.06
2022-08-22T15:50:35.943Z,84.11
2022-08-22T15:53:45.083Z,84.08
2022-08-22T15:56:53.771Z,84.07
2022-08-22T16:00:10.633Z,84.01
2022-08-22T16:03:28.216Z,84.04
2022-08-22T16:06:43.495Z,84.05
2022-08-22T16:09:50.821Z,84.01
2022-08-22T16:13:15.167Z,83.99
2022-08-22T16:16:49.806Z,83.80
2022-08-22T16:20:07.909Z,83.72
2022-08-22T16:23:13.252Z,83.58
2022-08-22T16:26:18.898Z,83.82
2022-08-22T16:29:30.831Z,83.74
2022-08-22T16:32:39.880Z,83.64
2022-08-22T16:36:20.125Z,83.60
2022-08-22T16:39:23.139Z,83.40
2022-08-22T16:42:46.793Z,83.43
2022-08-22T16:45:50.597Z,83.59
2022-08-22T16:49:02.087Z,83.62
2022-08-22T16:52:26.506Z,83.57
2022-08-22T16:55:29.722Z,83.51
2022-08-22T16:59:19.334Z,83.57
2022-08-22T17:03:03.696Z,83.58
2022-08-22T17:06:34.384Z,83.65
2022-08-22T17:09:49.546Z,83.70
2022-08-22T17:13:06.322Z,83.61
2022-08-22T17:16:18.423Z,83.60
2022-08-22T17:19:27.216Z,83.70
2022-08-22T17:22:40.669Z,83.70
2022-08-22T17:25:54.007Z,83.76
2022-08-22T17:28:56.933Z,83.86
2022-08-22T17:32:21.794Z,83.98
2022-08-22T17:35:41.073Z,84.15
2022-08-22T17:39:04.761Z,84.25
2022-08-22T17:42:26.611Z,84.31
2022-08-22T17:45:49.636Z,84.46
2022-08-22T17:49:11.350Z,84.39
2022-08-22T17:52:35.287Z,84.48
2022-08-22T17:55:59.441Z,84.43
2022-08-22T17:59:53.996Z,84.56
2022-08-22T18:03:02.840Z,84.53
2022-08-22T18:06:16.752Z,84.65
2022-08-22T18:09:32.014Z,84.69
2022-08-22T18:12:51.779Z,84.63
2022-08-22T18:16:01.193Z,84.58
2022-08-22T18:19:12.509Z,84.83
2022-08-22T18:22:36.721Z,84.79
2022-08-22T18:25:45.807Z,84.78
2022-08-22T18:29:00.898Z,84.79
2022-08-22T18:32:25.502Z,84.84
2022-08-22T18:35:53.796Z,85.09
2022-08-22T18:39:03.699Z,85.17
2022-08-22T18:42:18.055Z,85.20
2022-08-22T18:45:48.362Z,85.23
2022-08-22T18:49:14.166Z,85.25
2022-08-22T18:52:21.278Z,85.41
2022-08-22T18:55:33.726Z,85.42
2022-08-22T18:59:13.720Z,85.44
2022-08-22T19:02:55.876Z,85.61
2022-08-22T19:06:28.396Z,85.70
2022-08-22T19:10:05.216Z,85.78
2022-08-22T19:13:49.248Z,85.84
2022-08-22T19:17:18.399Z,86.03
2022-08-22T19:20:49.380Z,85.91
2022-08-22T19:23:57.401Z,85.89
2022-08-22T19:27:08.652Z,85.88
2022-08-22T19:30:35.066Z,85.92
2022-08-22T19:33:42.102Z,85.99
2022-08-22T19:37:06.116Z,86.20
2022-08-22T19:40:13.150Z,86.46
2022-08-22T19:43:30.845Z,86.64
2022-08-22T19:46:41.750Z,86.62
2022-08-22T19:50:01.646Z,86.62
2022-08-22T19:53:34.140Z,86.49
2022-08-22T19:57:00.005Z,86.48
2022-08-22T20:00:12.116Z,86.36
2022-08-22T20:03:49.186Z,86.29
2022-08-22T20:07:14.722Z,86.31
2022-08-22T20:10:59.771Z,86.32
2022-08-22T20:14:36.469Z,86.34
2022-08-22T20:17:43.659Z,86.37
2022-08-22T20:21:00.090Z,86.39
2022-08-22T20:24:14.233Z,86.48
2022-08-22T20:27:23.275Z,86.55
2022-08-22T20:30:37.316Z,86.52
2022-08-22T20:33:46.038Z,86.59
2022-08-22T20:36:59.737Z,86.69
2022-08-22T20:40:57.043Z,86.80
2022-08-22T20:44:29.580Z,86.89
2022-08-22T20:47:40.837Z,86.96
2022-08-22T20:50:45.298Z,86.98
2022-08-22T20:53:57.769Z,87.04
2022-08-22T20:57:18.304Z,87.07
2022-08-22T21:00:24.901Z,87.11
2022-08-22T21:03:33.813Z,87.13
2022-08-22T21:06:38.513Z,87.17
2022-08-22T21:10:00.173Z,87.20
2022-08-22T21:13:05.808Z,87.24
2022-08-22T21:16:13.859Z,87.26
2022-08-22T21:19:19.925Z,87.32
2022-08-22T21:22:32.179Z,87.35
2022-08-22T21:25:47.402Z,87.34
2022-08-22T21:29:13.039Z,87.28
2022-08-22T21:32:36.693Z,87.28
2022-08-22T21:35:39.862Z,87.31
2022-08-22T21:39:03.762Z,87.36
2022-08-22T21:42:11.432Z,87.41
2022-08-22T21:45:41.746Z,87.40
2022-08-22T21:48:59.544Z,87.41
2022-08-22T21:52:02.661Z,87.43
2022-08-22T21:55:12.943Z,87.45
2022-08-22T21:58:36.288Z,87.48
2022-08-22T22:01:38.727Z,87.53
2022-08-22T22:04:45.844Z,87.54
2022-08-22T22:07:48.746Z,87.59
2022-08-22T22:10:54.540Z,87.61
2022-08-22T22:13:57.448Z,87.59
2022-08-22T22:17:00.475Z,87.60
2022-08-22T22:20:04.750Z,87.69
2022-08-22T22:23:21.104Z,87.59
2022-08-22T22:26:24.473Z,87.14
2022-08-22T22:29:27.519Z,86.54
2022-08-22T22:32:30.536Z,86.08
2022-08-22T22:35:34.309Z,85.82
2022-08-22T22:38:39.077Z,85.61
2022-08-22T22:41:42.232Z,85.51
2022-08-22T22:44:47.511Z,85.47
2022-08-22T22:47:50.663Z,85.38
2022-08-22T22:50:54.019Z,85.34
2022-08-22T22:53:57.041Z,85.32
2022-08-22T22:56:59.905Z,85.34
2022-08-22T23:00:06.751Z,85.28
2022-08-22T23:03:10.210Z,85.31
2022-08-22T23:06:19.989Z,85.31
2022-08-22T23:09:38.528Z,85.30
2022-08-22T23:12:47.073Z,85.31
2022-08-22T23:15:50.029Z,85.30
2022-08-22T23:18:53.215Z,85.20
2022-08-22T23:21:57.896Z,85.18
2022-08-22T23:25:00.814Z,85.13
2022-08-22T23:28:04.140Z,85.16
2022-08-22T23:31:10.120Z,85.11
2022-08-22T23:34:15.215Z,85.10
2022-08-22T23:37:22.564Z,85.12
2022-08-22T23:40:25.491Z,85.12
2022-08-22T23:43:28.441Z,85.07
2022-08-22T23:46:31.427Z,85.06
2022-08-22T23:49:36.725Z,85.02
2022-08-22T23:52:39.703Z,85.02
2022-08-22T23:55:42.651Z,85.01
2022-08-22T23:58:45.528Z,84.94
